KNKX/NKX METAR and TAF weather

Enter ICAO airport designator
Station Type Date Time Source
KNKX METAR 2019/12/08 18:55 UTC NOAA

KNKX 081855Z 20003KT 10SM SCT005 BKN015 OVC038 18/14 A3008 RMK AO2 SLP180 T01830144


Station Type Date Time Source
KNKX Decoded METAR 2019/12/08 18:55 UTC NOAA

MCAS MIRAMAR, CA, United States (KNKX) 32-52N 117-09W 146M
Dec 08, 2019 - 01:55 PM EST / 2019.12.08 1855 UTC
Wind: from the SSW (200 degrees) at 3 MPH (3 KT):0
Visibility: 10 mile(s):0
Sky conditions: overcast
Temperature: 64.9 F (18.3 C)
Dew Point: 57.9 F (14.4 C)
Relative Humidity: 77%
Pressure (altimeter): 30.08 in. Hg (1018 hPa)
ob: KNKX 081855Z 20003KT 10SM SCT005 BKN015 OVC038 18/14 A3008 RMK AO2 SLP180 T01830144
cycle: 19

Station Type Date Time Source
KNKX TAF 2019/12/08 15:50 UTC NOAA

TAF KNKX 0815/0915 VRB05KT 9999 OVC018 QNH3005INS
FM081730 28009KT 9999 VCSH BKN015 OVC035 QNH3000INS
TEMPO 0818/0900 2400 RA BR OVC009
BECMG 0903/0905 VRB05KT 9999 SKC QNH3001INS T20/0821Z T15/0909Z TAF KNFG 0815/09015 VRB05KT 6000 BR OVC016 QNH3005INS
FM081730 24009KT 9999 VCSH BKN020 OVC035 QNH3000INS
TEMPO 0818/0900 2400 RA BR OVC009
BECMG 0903/0905 VRB05KT 9999 SKC QNH3001INS T20/0821Z T15/0909Z

Example: see airport list